createdAt,value
2023-01-20T00:01:29.208Z,100859.53
2023-01-20T00:03:56.879Z,100851.81
2023-01-20T00:06:24.619Z,100854.56
2023-01-20T00:08:52.029Z,100857.38
2023-01-20T00:11:19.175Z,100858.31
2023-01-20T00:13:46.341Z,100859.28
2023-01-20T00:16:14.007Z,100856.03
2023-01-20T00:18:41.438Z,100857.94
2023-01-20T00:21:10.032Z,100858.03
2023-01-20T00:23:36.914Z,100867.53
2023-01-20T00:26:05.024Z,100866.78
2023-01-20T00:28:32.257Z,100874.94
2023-01-20T00:30:59.203Z,100876.09
2023-01-20T00:33:26.162Z,100871.00
2023-01-20T00:35:53.050Z,100871.09
2023-01-20T00:38:20.430Z,100870.31
2023-01-20T00:40:53.709Z,100865.91
2023-01-20T00:43:20.627Z,100869.47
2023-01-20T00:45:47.468Z,100866.03
2023-01-20T00:48:14.329Z,100870.50
2023-01-20T00:50:41.313Z,100875.81
2023-01-20T00:53:08.159Z,100883.84
2023-01-20T00:55:34.971Z,100883.84
2023-01-20T00:58:02.078Z,100887.38
2023-01-20T01:00:28.937Z,100883.13
2023-01-20T01:02:56.084Z,100881.34
2023-01-20T01:05:23.318Z,100888.97
2023-01-20T01:07:50.169Z,100880.09
2023-01-20T01:10:17.253Z,100883.41
2023-01-20T01:12:44.110Z,100890.28
2023-01-20T01:15:11.620Z,100893.59
2023-01-20T01:17:38.742Z,100897.13
2023-01-20T01:20:05.986Z,100901.63
2023-01-20T01:22:33.565Z,100906.75
2023-01-20T01:25:00.512Z,100903.19
2023-01-20T01:27:28.194Z,100914.31
2023-01-20T01:29:55.899Z,100908.06
2023-01-20T01:32:23.123Z,100907.03
2023-01-20T01:34:49.955Z,100907.63
2023-01-20T01:37:16.809Z,100919.69
2023-01-20T01:39:43.713Z,100918.75
2023-01-20T01:42:12.063Z,100924.56
2023-01-20T01:44:39.926Z,100936.31
2023-01-20T01:47:06.782Z,100934.31
2023-01-20T01:49:33.803Z,100936.00
2023-01-20T01:52:03.323Z,100939.34
2023-01-20T01:54:34.475Z,100935.06
2023-01-20T01:57:01.751Z,100943.72
2023-01-20T01:59:28.676Z,100951.72
2023-01-20T02:01:56.239Z,100948.41
2023-01-20T02:04:24.671Z,100947.59
2023-01-20T02:06:54.745Z,100948.84
2023-01-20T02:09:21.592Z,100948.25
2023-01-20T02:11:50.997Z,100963.22
2023-01-20T02:14:19.019Z,100952.94
2023-01-20T02:16:47.304Z,100954.81
2023-01-20T02:19:17.152Z,100962.03
2023-01-20T02:21:47.047Z,100963.06
2023-01-20T02:24:23.927Z,100972.75
2023-01-20T02:26:53.947Z,100973.91
2023-01-20T02:29:22.131Z,100971.41
2023-01-20T02:31:50.345Z,100977.56
2023-01-20T02:34:26.079Z,100975.88
2023-01-20T02:36:55.987Z,100973.50
2023-01-20T02:39:31.191Z,100970.31
2023-01-20T02:42:01.056Z,100979.97
2023-01-20T02:44:29.437Z,100973.00
2023-01-20T02:46:59.321Z,100986.22
2023-01-20T02:49:26.617Z,100988.81
2023-01-20T02:51:56.486Z,100992.38
2023-01-20T02:54:25.724Z,100991.53
2023-01-20T02:56:53.492Z,100993.31
2023-01-20T02:59:24.590Z,100994.97
2023-01-20T03:01:54.549Z,101002.88
2023-01-20T03:04:24.883Z,101005.56
2023-01-20T03:06:53.799Z,100998.84
2023-01-20T03:09:25.746Z,101004.03
2023-01-20T03:11:56.847Z,101009.84
2023-01-20T03:14:23.695Z,101001.31
2023-01-20T03:16:50.673Z,101003.28
2023-01-20T03:19:20.335Z,101008.50
2023-01-20T03:21:47.639Z,101006.81
2023-01-20T03:24:14.546Z,101006.72
2023-01-20T03:26:41.418Z,101014.53
2023-01-20T03:29:09.220Z,101006.97
2023-01-20T03:31:39.986Z,101009.66
2023-01-20T03:34:11.315Z,101007.16
2023-01-20T03:36:39.847Z,101009.75
2023-01-20T03:39:06.772Z,101007.16
2023-01-20T03:41:35.021Z,101013.28
2023-01-20T03:44:10.831Z,101026.41
2023-01-20T03:46:42.559Z,101024.53
2023-01-20T03:49:15.951Z,101036.59
2023-01-20T03:51:45.846Z,101029.72
2023-01-20T03:54:15.780Z,101031.50
2023-01-20T03:56:46.054Z,101035.06
2023-01-20T03:59:14.563Z,101043.16
2023-01-20T04:01:43.831Z,101040.16
2023-01-20T04:04:14.817Z,101045.53
2023-01-20T04:06:42.653Z,101048.25
2023-01-20T04:09:11.652Z,101044.81
2023-01-20T04:11:38.672Z,101038.69
2023-01-20T04:14:06.005Z,101048.13
2023-01-20T04:16:32.954Z,101059.50
2023-01-20T04:18:59.815Z,101059.59
2023-01-20T04:21:31.733Z,101066.47
2023-01-20T04:24:01.649Z,101068.22
2023-01-20T04:26:28.841Z,101063.03
2023-01-20T04:28:55.646Z,101065.63
2023-01-20T04:31:30.551Z,101070.00
2023-01-20T04:33:58.201Z,101080.31
2023-01-20T04:36:25.056Z,101079.56
2023-01-20T04:38:51.971Z,101082.25
2023-01-20T04:41:18.795Z,101082.16
2023-01-20T04:43:46.174Z,101079.56
2023-01-20T04:46:13.550Z,101082.16
2023-01-20T04:48:40.874Z,101076.03
2023-01-20T04:51:08.251Z,101075.09
2023-01-20T04:53:35.298Z,101079.34
2023-01-20T04:56:02.211Z,101082.06
2023-01-20T04:58:29.139Z,101076.88
2023-01-20T05:00:56.304Z,101079.56
2023-01-20T05:03:23.147Z,101082.25
2023-01-20T05:05:53.603Z,101081.34
2023-01-20T05:08:20.627Z,101088.50
2023-01-20T05:10:47.604Z,101094.66
2023-01-20T05:13:14.620Z,101094.66
2023-01-20T05:15:42.318Z,101105.97
2023-01-20T05:18:09.179Z,101098.25
2023-01-20T05:20:36.071Z,101101.81
2023-01-20T05:23:02.936Z,101104.44
2023-01-20T05:25:29.887Z,101105.34
2023-01-20T05:27:56.735Z,101107.94
2023-01-20T05:30:23.596Z,101111.41
2023-01-20T05:32:51.342Z,101105.34
2023-01-20T05:35:18.633Z,101108.13
2023-01-20T05:37:45.551Z,101108.88
2023-01-20T05:40:12.673Z,101113.34
2023-01-20T05:42:39.734Z,101116.91
2023-01-20T05:45:07.205Z,101112.41
2023-01-20T05:47:34.015Z,101121.03
2023-01-20T05:50:01.875Z,101121.97
2023-01-20T05:52:28.696Z,101121.88
2023-01-20T05:54:55.682Z,101126.25
2023-01-20T05:57:25.611Z,101129.69
2023-01-20T05:59:53.024Z,101128.84
2023-01-20T06:02:20.302Z,101137.41
2023-01-20T06:04:47.293Z,101130.31
2023-01-20T06:07:14.523Z,101142.47
2023-01-20T06:09:41.933Z,101139.88
2023-01-20T06:12:08.745Z,101135.50
2023-01-20T06:14:35.676Z,101141.56
2023-01-20T06:17:02.483Z,101138.03
2023-01-20T06:19:29.306Z,101147.59
2023-01-20T06:21:56.150Z,101150.94
2023-01-20T06:24:22.994Z,101149.25
2023-01-20T06:26:51.580Z,101157.06
2023-01-20T06:29:18.427Z,101150.19
2023-01-20T06:31:45.918Z,101155.41
2023-01-20T06:34:13.082Z,101163.19
2023-01-20T06:36:40.199Z,101162.47
2023-01-20T06:39:07.202Z,101159.88
2023-01-20T06:41:40.720Z,101157.06
2023-01-20T06:44:07.613Z,101168.22
2023-01-20T06:46:34.791Z,101157.81
2023-01-20T06:49:01.810Z,101166.34
2023-01-20T06:51:29.851Z,101167.06
2023-01-20T06:53:56.744Z,101164.34
2023-01-20T06:56:24.062Z,101166.88
2023-01-20T06:58:51.395Z,101174.56
2023-01-20T07:01:22.515Z,101174.38
2023-01-20T07:03:49.750Z,101176.78
2023-01-20T07:06:20.450Z,101175.72
2023-01-20T07:08:47.427Z,101179.09
2023-01-20T07:11:14.299Z,101187.72
2023-01-20T07:13:41.399Z,101190.41
2023-01-20T07:16:10.991Z,101195.53
2023-01-20T07:18:39.372Z,101189.38
2023-01-20T07:21:06.602Z,101210.09
2023-01-20T07:23:34.037Z,101201.56
2023-01-20T07:26:01.962Z,101199.06
2023-01-20T07:28:29.180Z,101203.44
2023-01-20T07:30:56.066Z,101202.59
2023-01-20T07:33:23.239Z,101218.94
2023-01-20T07:35:51.829Z,101214.59
2023-01-20T07:38:18.740Z,101230.19
2023-01-20T07:40:45.631Z,101219.66
2023-01-20T07:43:21.075Z,101221.25
2023-01-20T07:45:47.947Z,101228.00
2023-01-20T07:48:14.984Z,101221.88
2023-01-20T07:50:41.830Z,101229.47
2023-01-20T07:53:08.787Z,101223.25
2023-01-20T07:55:35.647Z,101230.97
2023-01-20T07:58:02.736Z,101235.25
2023-01-20T08:00:29.653Z,101237.63
2023-01-20T08:02:56.593Z,101249.50
2023-01-20T08:05:23.523Z,101245.97
2023-01-20T08:07:51.023Z,101255.53
2023-01-20T08:10:18.105Z,101259.81
2023-01-20T08:12:45.086Z,101258.91
2023-01-20T08:15:11.969Z,101260.66
2023-01-20T08:17:38.872Z,101267.81
2023-01-20T08:20:06.412Z,101276.38
2023-01-20T08:22:34.721Z,101276.28
2023-01-20T08:25:01.627Z,101281.66
2023-01-20T08:27:28.498Z,101283.44
2023-01-20T08:29:55.921Z,101289.28
2023-01-20T08:32:22.885Z,101293.34
2023-01-20T08:34:49.883Z,101295.88
2023-01-20T08:37:16.763Z,101289.72
2023-01-20T08:39:43.598Z,101288.78
2023-01-20T08:42:10.533Z,101294.72
2023-01-20T08:44:37.470Z,101295.25
2023-01-20T08:47:04.423Z,101301.94
2023-01-20T08:49:31.456Z,101302.88
2023-01-20T08:51:58.662Z,101303.69
2023-01-20T08:54:25.889Z,101309.44
2023-01-20T08:56:53.615Z,101304.97
2023-01-20T08:59:20.678Z,101300.50
2023-01-20T09:01:47.610Z,101316.03
2023-01-20T09:04:14.511Z,101315.22
2023-01-20T09:06:44.118Z,101326.94
2023-01-20T09:09:11.502Z,101325.69
2023-01-20T09:11:39.385Z,101335.81
2023-01-20T09:14:06.370Z,101325.25
2023-01-20T09:16:33.321Z,101324.13
2023-01-20T09:19:00.295Z,101326.53
2023-01-20T09:21:27.236Z,101330.91
2023-01-20T09:23:54.355Z,101328.09
2023-01-20T09:26:34.726Z,101328.63
2023-01-20T09:29:10.054Z,101330.09
2023-01-20T09:31:38.720Z,101334.22
2023-01-20T09:34:06.011Z,101337.38
2023-01-20T09:36:33.050Z,101341.25
2023-01-20T09:39:03.057Z,101345.28
2023-01-20T09:41:38.001Z,101344.97
2023-01-20T09:44:08.034Z,101349.03
2023-01-20T09:46:38.103Z,101354.91
2023-01-20T09:49:14.796Z,101360.72
2023-01-20T09:51:52.603Z,101358.72
2023-01-20T09:54:23.468Z,101359.25
2023-01-20T09:56:52.265Z,101362.50
2023-01-20T09:59:22.430Z,101370.09
2023-01-20T10:01:53.277Z,101382.00
2023-01-20T10:04:23.271Z,101384.28
2023-01-20T10:06:54.290Z,101387.31
2023-01-20T10:09:24.283Z,101397.44
2023-01-20T10:11:52.484Z,101397.09
2023-01-20T10:14:25.745Z,101404.59
2023-01-20T10:16:53.942Z,101409.50
2023-01-20T10:19:27.430Z,101408.47
2023-01-20T10:22:01.948Z,101406.47
2023-01-20T10:24:31.777Z,101411.50
2023-01-20T10:27:02.005Z,101418.09
2023-01-20T10:29:29.314Z,101423.69
2023-01-20T10:32:00.329Z,101420.06
2023-01-20T10:34:30.620Z,101427.66
2023-01-20T10:37:04.886Z,101424.84
2023-01-20T10:39:35.188Z,101432.44
2023-01-20T10:42:04.781Z,101431.28
2023-01-20T10:44:35.402Z,101429.19
2023-01-20T10:47:05.527Z,101431.69
2023-01-20T10:49:32.857Z,101438.47
2023-01-20T10:52:03.235Z,101436.69
2023-01-20T10:54:31.704Z,101442.66
2023-01-20T10:56:59.850Z,101443.47
2023-01-20T10:59:29.924Z,101443.84
2023-01-20T11:02:11.585Z,101450.41
2023-01-20T11:04:39.785Z,101445.09
2023-01-20T11:07:13.349Z,101455.13
2023-01-20T11:09:42.330Z,101444.31
2023-01-20T11:12:13.856Z,101440.53
2023-01-20T11:14:40.986Z,101451.38
2023-01-20T11:17:13.293Z,101449.28
2023-01-20T11:19:43.309Z,101448.69
2023-01-20T11:22:11.391Z,101446.22
2023-01-20T11:24:43.011Z,101453.94
2023-01-20T11:27:13.257Z,101458.13
2023-01-20T11:29:42.969Z,101456.34
2023-01-20T11:32:12.976Z,101453.72
2023-01-20T11:34:48.776Z,101439.56
2023-01-20T11:37:18.177Z,101440.19
2023-01-20T11:39:48.127Z,101443.41
2023-01-20T11:42:15.364Z,101450.19
2023-01-20T11:44:45.363Z,101452.50
2023-01-20T11:47:16.965Z,101453.09
2023-01-20T11:49:44.210Z,101452.84
2023-01-20T11:52:21.335Z,101455.25
2023-01-20T11:54:48.495Z,101447.88
2023-01-20T11:57:17.256Z,101449.22
2023-01-20T11:59:49.873Z,101456.94
2023-01-20T12:02:23.766Z,101459.69
2023-01-20T12:04:53.422Z,101452.53
2023-01-20T12:07:23.824Z,101456.94
2023-01-20T12:09:53.291Z,101455.03
2023-01-20T12:12:28.044Z,101454.94
2023-01-20T12:14:58.365Z,101467.78
2023-01-20T12:17:27.207Z,101459.47
2023-01-20T12:19:59.256Z,101464.34
2023-01-20T12:22:29.497Z,101460.31
2023-01-20T12:25:00.275Z,101464.50
2023-01-20T12:27:28.217Z,101469.63
2023-01-20T12:29:59.366Z,101458.16
2023-01-20T12:32:26.430Z,101459.97
2023-01-20T12:34:53.562Z,101455.56
2023-01-20T12:37:25.662Z,101448.44
2023-01-20T12:40:04.763Z,101453.56
2023-01-20T12:42:32.186Z,101469.25
2023-01-20T12:45:04.217Z,101464.03
2023-01-20T12:47:34.339Z,101463.19
2023-01-20T12:50:04.399Z,101465.91
2023-01-20T12:52:34.618Z,101465.91
2023-01-20T12:55:12.909Z,101467.34
2023-01-20T12:57:43.869Z,101460.56
2023-01-20T13:00:12.937Z,101466.28
2023-01-20T13:02:43.145Z,101467.25
2023-01-20T13:05:16.032Z,101461.16
2023-01-20T13:07:46.922Z,101466.50
2023-01-20T13:10:15.887Z,101472.72
2023-01-20T13:12:46.142Z,101469.84
2023-01-20T13:15:14.710Z,101461.75
2023-01-20T13:17:44.937Z,101463.44
2023-01-20T13:20:17.262Z,101471.75
2023-01-20T13:22:45.021Z,101463.22
2023-01-20T13:25:15.090Z,101464.53
2023-01-20T13:27:43.397Z,101464.19
2023-01-20T13:30:30.455Z,101464.19
2023-01-20T13:33:00.490Z,101466.06
2023-01-20T13:35:28.790Z,101467.97
2023-01-20T13:37:57.981Z,101472.25
2023-01-20T13:40:28.142Z,101481.41
2023-01-20T13:42:55.257Z,101473.66
2023-01-20T13:45:23.464Z,101476.19
2023-01-20T13:47:52.139Z,101478.59
2023-01-20T13:50:22.292Z,101480.22
2023-01-20T13:52:50.796Z,101479.16
2023-01-20T13:55:20.971Z,101477.59
2023-01-20T13:57:48.027Z,101487.97
2023-01-20T14:00:17.312Z,101485.25
2023-01-20T14:02:45.369Z,101482.63
2023-01-20T14:05:15.760Z,101483.22
2023-01-20T14:07:44.740Z,101488.22
2023-01-20T14:10:12.865Z,101488.09
2023-01-20T14:12:40.595Z,101491.44
2023-01-20T14:15:09.267Z,101500.13
2023-01-20T14:17:37.036Z,101497.28
2023-01-20T14:20:21.895Z,101502.41
2023-01-20T14:22:49.112Z,101508.47
2023-01-20T14:25:19.370Z,101510.47
2023-01-20T14:27:46.949Z,101522.63
2023-01-20T14:30:16.504Z,101519.06
2023-01-20T14:32:43.791Z,101523.34
2023-01-20T14:35:14.324Z,101522.41
2023-01-20T14:37:41.675Z,101529.06
2023-01-20T14:40:18.779Z,101531.59
2023-01-20T14:42:55.132Z,101528.00
2023-01-20T14:45:23.837Z,101535.84
2023-01-20T14:47:51.298Z,101536.00
2023-01-20T14:50:20.284Z,101541.22
2023-01-20T14:52:47.710Z,101542.19
2023-01-20T14:55:17.778Z,101546.47
2023-01-20T14:57:44.978Z,101543.50
2023-01-20T15:00:13.526Z,101553.63
2023-01-20T15:02:43.155Z,101556.81
2023-01-20T15:05:13.808Z,101560.03
2023-01-20T15:07:41.516Z,101559.91
2023-01-20T15:10:13.687Z,101567.69
2023-01-20T15:12:44.282Z,101562.44
2023-01-20T15:15:14.586Z,101573.88
2023-01-20T15:18:01.687Z,101574.13
2023-01-20T15:20:32.628Z,101583.75
2023-01-20T15:23:00.609Z,101583.75
2023-01-20T15:25:28.272Z,101595.09
2023-01-20T15:27:57.214Z,101592.47
2023-01-20T15:30:27.946Z,101592.56
2023-01-20T15:32:55.972Z,101596.13
2023-01-20T15:35:26.218Z,101597.22
2023-01-20T15:37:53.878Z,101602.47
2023-01-20T15:40:24.113Z,101594.59
2023-01-20T15:42:51.871Z,101607.81
2023-01-20T15:45:19.908Z,101612.31
2023-01-20T15:47:47.713Z,101611.38
2023-01-20T15:50:16.961Z,101623.44
2023-01-20T15:52:44.449Z,101625.91
2023-01-20T15:55:17.524Z,101626.03
2023-01-20T15:57:45.747Z,101621.03
2023-01-20T16:00:16.119Z,101628.03
2023-01-20T16:02:43.991Z,101627.09
2023-01-20T16:05:15.253Z,101630.56
2023-01-20T16:07:44.840Z,101635.91
2023-01-20T16:10:15.660Z,101646.53
2023-01-20T16:12:42.931Z,101644.75
2023-01-20T16:15:13.679Z,101643.91
2023-01-20T16:17:40.825Z,101662.09
2023-01-20T16:20:11.110Z,101659.72
2023-01-20T16:22:38.211Z,101661.50
2023-01-20T16:25:05.659Z,101670.22
2023-01-20T16:27:32.844Z,101675.56
2023-01-20T16:30:00.102Z,101681.75
2023-01-20T16:32:29.348Z,101680.81
2023-01-20T16:34:56.866Z,101679.13
2023-01-20T16:37:23.867Z,101688.56
2023-01-20T16:39:51.181Z,101681.63
2023-01-20T16:42:18.534Z,101680.81
2023-01-20T16:44:45.762Z,101683.56
2023-01-20T16:47:12.981Z,101694.97
2023-01-20T16:49:40.203Z,101689.00
2023-01-20T16:52:07.541Z,101693.75
2023-01-20T16:54:34.698Z,101694.09
2023-01-20T16:57:01.818Z,101693.59
2023-01-20T16:59:28.981Z,101699.28
2023-01-20T17:01:56.438Z,101705.81
2023-01-20T17:04:23.748Z,101710.56
2023-01-20T17:06:52.873Z,101712.56
2023-01-20T17:09:19.986Z,101708.16
2023-01-20T17:11:47.077Z,101716.22
2023-01-20T17:14:15.960Z,101709.53
2023-01-20T17:16:43.233Z,101722.03
2023-01-20T17:19:17.682Z,101723.91
2023-01-20T17:21:45.020Z,101730.13
2023-01-20T17:24:13.098Z,101731.78
2023-01-20T17:26:40.311Z,101742.25
2023-01-20T17:29:10.955Z,101747.47
2023-01-20T17:31:40.612Z,101741.41
2023-01-20T17:34:07.939Z,101745.84
2023-01-20T17:36:35.154Z,101747.72
2023-01-20T17:39:02.893Z,101748.66
2023-01-20T17:41:30.230Z,101754.00
2023-01-20T17:43:57.314Z,101753.19
2023-01-20T17:46:28.098Z,101761.97
2023-01-20T17:48:58.543Z,101763.84
2023-01-20T17:51:26.570Z,101769.09
2023-01-20T17:53:54.665Z,101770.75
2023-01-20T17:56:22.502Z,101766.25
2023-01-20T17:58:50.070Z,101774.22
2023-01-20T18:01:19.741Z,101783.00
2023-01-20T18:03:48.774Z,101788.47
2023-01-20T18:06:16.908Z,101787.72
2023-01-20T18:08:44.140Z,101786.38
2023-01-20T18:11:13.100Z,101792.78
2023-01-20T18:13:40.294Z,101790.59
2023-01-20T18:16:11.233Z,101805.44
2023-01-20T18:18:39.985Z,101800.63
2023-01-20T18:21:10.407Z,101810.59
2023-01-20T18:23:39.151Z,101818.66
2023-01-20T18:26:07.128Z,101818.88
2023-01-20T18:28:34.602Z,101833.75
2023-01-20T18:31:08.240Z,101825.75
2023-01-20T18:33:40.428Z,101842.28
2023-01-20T18:36:08.296Z,101844.06
2023-01-20T18:38:35.708Z,101844.06
2023-01-20T18:41:02.936Z,101855.59
2023-01-20T18:43:30.506Z,101854.97
2023-01-20T18:45:57.595Z,101852.56
2023-01-20T18:48:25.656Z,101857.78
2023-01-20T18:50:58.331Z,101866.47
2023-01-20T18:53:25.652Z,101869.84
2023-01-20T18:55:52.757Z,101878.53
2023-01-20T18:58:20.067Z,101873.16
2023-01-20T19:00:47.341Z,101875.69
2023-01-20T19:03:14.596Z,101876.53
2023-01-20T19:05:42.470Z,101883.63
2023-01-20T19:08:09.554Z,101882.06
2023-01-20T19:10:36.574Z,101886.56
2023-01-20T19:13:03.748Z,101894.41
2023-01-20T19:15:33.505Z,101897.97
2023-01-20T19:18:00.838Z,101890.84
2023-01-20T19:20:27.885Z,101898.78
2023-01-20T19:22:54.893Z,101900.03
2023-01-20T19:25:22.057Z,101902.78
2023-01-20T19:27:49.166Z,101905.50
2023-01-20T19:30:16.864Z,101905.72
2023-01-20T19:32:44.040Z,101912.91
2023-01-20T19:35:11.020Z,101924.50
2023-01-20T19:37:38.859Z,101919.50
2023-01-20T19:40:06.025Z,101924.19
2023-01-20T19:42:33.218Z,101925.88
2023-01-20T19:45:00.187Z,101929.41
2023-01-20T19:47:30.667Z,101936.50
2023-01-20T19:49:57.923Z,101936.81
2023-01-20T19:52:24.893Z,101936.06
2023-01-20T19:54:52.138Z,101944.66
2023-01-20T19:57:19.111Z,101937.09
2023-01-20T19:59:46.099Z,101940.03
2023-01-20T20:02:13.142Z,101940.94
2023-01-20T20:04:40.092Z,101945.34
2023-01-20T20:07:07.020Z,101957.66
2023-01-20T20:09:34.067Z,101956.19
2023-01-20T20:12:06.337Z,101961.78
2023-01-20T20:14:33.800Z,101954.16
2023-01-20T20:17:00.830Z,101968.06
2023-01-20T20:19:27.766Z,101968.81
2023-01-20T20:21:56.569Z,101968.06
2023-01-20T20:24:23.634Z,101967.31
2023-01-20T20:26:50.631Z,101970.03
2023-01-20T20:29:19.064Z,101977.13
2023-01-20T20:31:46.304Z,101973.75
2023-01-20T20:34:14.601Z,101983.28
2023-01-20T20:36:41.711Z,101989.56
2023-01-20T20:39:08.713Z,101999.16
2023-01-20T20:41:36.887Z,102001.88
2023-01-20T20:44:04.349Z,102008.88
2023-01-20T20:46:31.362Z,102011.84
2023-01-20T20:49:01.112Z,102017.19
2023-01-20T20:51:29.275Z,102023.44
2023-01-20T20:53:56.663Z,102023.53
2023-01-20T20:56:24.026Z,102027.25
2023-01-20T20:59:01.276Z,102027.16
2023-01-20T21:01:30.230Z,102026.31
2023-01-20T21:03:58.396Z,102033.31
2023-01-20T21:06:25.659Z,102040.44
2023-01-20T21:08:52.884Z,102038.91
2023-01-20T21:11:21.019Z,102045.09
2023-01-20T21:13:49.798Z,102053.84
2023-01-20T21:16:18.160Z,102048.56
2023-01-20T21:18:45.234Z,102056.38
2023-01-20T21:21:13.230Z,102063.25
2023-01-20T21:23:42.017Z,102070.38
2023-01-20T21:26:12.098Z,102070.94
2023-01-20T21:28:40.099Z,102069.16
2023-01-20T21:31:07.840Z,102075.41
2023-01-20T21:33:36.794Z,102072.13
2023-01-20T21:36:09.327Z,102085.47
2023-01-20T21:38:37.805Z,102091.72
2023-01-20T21:41:05.284Z,102090.97
2023-01-20T21:43:36.214Z,102096.34
2023-01-20T21:46:03.091Z,102086.94
2023-01-20T21:48:33.128Z,102097.38
2023-01-20T21:51:04.067Z,102099.22
2023-01-20T21:53:31.050Z,102095.88
2023-01-20T21:55:58.079Z,102103.59
2023-01-20T21:58:24.999Z,102101.19
2023-01-20T22:00:54.950Z,102100.41
2023-01-20T22:03:21.982Z,102099.69
2023-01-20T22:05:48.891Z,102102.19
2023-01-20T22:08:15.743Z,102104.78
2023-01-20T22:10:42.728Z,102119.72
2023-01-20T22:13:09.699Z,102115.44
2023-01-20T22:15:37.556Z,102117.00
2023-01-20T22:18:05.944Z,102120.66
2023-01-20T22:20:32.953Z,102117.28
2023-01-20T22:22:59.839Z,102115.50
2023-01-20T22:25:26.853Z,102123.47
2023-01-20T22:27:53.753Z,102124.53
2023-01-20T22:30:20.747Z,102129.75
2023-01-20T22:32:47.689Z,102135.94
2023-01-20T22:35:14.651Z,102135.94
2023-01-20T22:37:41.623Z,102153.19
2023-01-20T22:40:09.054Z,102154.78
2023-01-20T22:42:35.959Z,102160.94
2023-01-20T22:45:02.902Z,102156.63
2023-01-20T22:47:29.853Z,102162.63
2023-01-20T22:49:57.230Z,102170.44
2023-01-20T22:52:24.173Z,102176.59
2023-01-20T22:54:51.115Z,102180.13
2023-01-20T22:57:17.993Z,102174.06
2023-01-20T22:59:44.913Z,102181.06
2023-01-20T23:02:11.848Z,102181.97
2023-01-20T23:04:38.774Z,102185.53
2023-01-20T23:07:05.611Z,102193.38
2023-01-20T23:09:32.592Z,102194.19
2023-01-20T23:11:59.615Z,102199.50
2023-01-20T23:14:29.650Z,102196.91
2023-01-20T23:16:56.800Z,102207.06
2023-01-20T23:19:23.790Z,102204.72
2023-01-20T23:21:50.823Z,102211.72
2023-01-20T23:24:17.705Z,102211.06
2023-01-20T23:26:44.637Z,102210.94
2023-01-20T23:29:11.603Z,102210.78
2023-01-20T23:31:38.570Z,102218.53
2023-01-20T23:34:05.431Z,102219.22
2023-01-20T23:36:32.463Z,102220.53
2023-01-20T23:38:59.332Z,102228.28
2023-01-20T23:41:26.388Z,102237.63
2023-01-20T23:43:53.248Z,102242.75
2023-01-20T23:46:20.092Z,102241.84
2023-01-20T23:48:47.218Z,102243.69
2023-01-20T23:51:14.227Z,102240.22
2023-01-20T23:53:41.545Z,102247.91
2023-01-20T23:56:12.054Z,102249.81
2023-01-20T23:58:39.757Z,102253.47
